createdAt,value
2023-01-28T00:00:55.667Z,102628.00
2023-01-28T00:03:26.427Z,102630.65
2023-01-28T00:06:07.559Z,102628.16
2023-01-28T00:08:36.234Z,102625.86
2023-01-28T00:11:06.746Z,102622.95
2023-01-28T00:13:35.233Z,102623.00
2023-01-28T00:16:05.721Z,102622.45
2023-01-28T00:18:34.269Z,102622.74
2023-01-28T00:21:12.283Z,102629.45
2023-01-28T00:23:42.525Z,102631.42
2023-01-28T00:26:13.647Z,102629.00
2023-01-28T00:28:43.006Z,102624.79
2023-01-28T00:31:23.206Z,102621.42
2023-01-28T00:33:52.083Z,102625.51
2023-01-28T00:36:22.605Z,102624.88
2023-01-28T00:38:52.315Z,102625.61
2023-01-28T00:41:22.614Z,102627.32
2023-01-28T00:43:53.402Z,102626.85
2023-01-28T00:46:23.031Z,102630.27
2023-01-28T00:48:51.179Z,102628.87
2023-01-28T00:51:20.833Z,102628.33
2023-01-28T00:53:50.477Z,102631.46
2023-01-28T00:56:19.755Z,102627.64
2023-01-28T00:58:48.462Z,102625.75
2023-01-28T01:01:18.184Z,102616.72
2023-01-28T01:03:46.797Z,102615.09
2023-01-28T01:06:16.305Z,102607.79
2023-01-28T01:08:50.604Z,102613.20
2023-01-28T01:11:19.538Z,102611.23
2023-01-28T01:13:52.728Z,102613.25
2023-01-28T01:16:22.027Z,102613.44
2023-01-28T01:18:52.470Z,102612.20
2023-01-28T01:21:23.819Z,102614.94
2023-01-28T01:23:52.597Z,102608.90
2023-01-28T01:26:21.390Z,102605.88
2023-01-28T01:28:51.532Z,102606.05
2023-01-28T01:31:21.454Z,102596.98
2023-01-28T01:33:50.927Z,102590.60
2023-01-28T01:36:22.025Z,102589.94
2023-01-28T01:38:55.335Z,102594.65
2023-01-28T01:41:30.649Z,102593.13
2023-01-28T01:44:04.420Z,102597.10
2023-01-28T01:46:35.567Z,102598.59
2023-01-28T01:49:42.229Z,102596.69
2023-01-28T01:52:22.378Z,102601.05
2023-01-28T01:54:55.168Z,102604.34
2023-01-28T01:57:29.066Z,102602.02
2023-01-28T02:00:06.396Z,102604.56
2023-01-28T02:02:48.860Z,102609.28
2023-01-28T02:05:20.116Z,102606.41
2023-01-28T02:07:51.940Z,102610.60
2023-01-28T02:10:20.155Z,102611.08
2023-01-28T02:12:56.386Z,102606.02
2023-01-28T02:15:27.459Z,102604.91
2023-01-28T02:17:57.488Z,102601.02
2023-01-28T02:21:04.391Z,102599.46
2023-01-28T02:23:58.244Z,102594.86
2023-01-28T02:26:45.142Z,102594.71
2023-01-28T02:30:01.461Z,102589.44
2023-01-28T02:32:57.766Z,102591.38
2023-01-28T02:35:35.764Z,102597.45
2023-01-28T02:38:29.292Z,102597.29
2023-01-28T02:41:06.589Z,102591.49
2023-01-28T02:43:39.539Z,102588.67
2023-01-28T02:46:41.565Z,102582.63
2023-01-28T02:49:16.598Z,102588.84
2023-01-28T02:51:56.652Z,102589.83
2023-01-28T02:54:24.625Z,102587.89
2023-01-28T02:57:40.308Z,102589.89
2023-01-28T03:00:24.148Z,102588.30
2023-01-28T03:03:12.288Z,102581.08
2023-01-28T03:06:03.594Z,102580.97
2023-01-28T03:08:54.821Z,102581.30
2023-01-28T03:11:42.451Z,102580.05
2023-01-28T03:14:30.487Z,102579.61
2023-01-28T03:17:20.064Z,102585.02
2023-01-28T03:20:07.403Z,102593.54
2023-01-28T03:22:59.351Z,102595.29
2023-01-28T03:25:46.602Z,102588.21
2023-01-28T03:28:39.077Z,102576.83
2023-01-28T03:31:30.902Z,102574.98
2023-01-28T03:34:21.299Z,102572.33
2023-01-28T03:36:50.916Z,102568.66
2023-01-28T03:39:39.354Z,102569.21
2023-01-28T03:42:14.384Z,102568.29
2023-01-28T03:45:04.264Z,102570.04
2023-01-28T03:47:34.274Z,102564.45
2023-01-28T03:50:06.960Z,102562.09
2023-01-28T03:52:41.072Z,102559.03
2023-01-28T03:55:17.862Z,102560.54
2023-01-28T03:57:46.230Z,102561.10
2023-01-28T04:00:18.393Z,102563.14
2023-01-28T04:02:47.222Z,102560.51
2023-01-28T04:05:20.474Z,102555.39
2023-01-28T04:07:51.832Z,102559.52
2023-01-28T04:10:49.410Z,102562.21
2023-01-28T04:13:25.698Z,102564.45
2023-01-28T04:15:53.956Z,102565.35
2023-01-28T04:18:27.464Z,102560.91
2023-01-28T04:20:58.250Z,102565.25
2023-01-28T04:23:26.395Z,102568.90
2023-01-28T04:25:56.028Z,102571.27
2023-01-28T04:28:24.513Z,102574.36
2023-01-28T04:30:53.393Z,102580.20
2023-01-28T04:33:47.685Z,102580.64
2023-01-28T04:36:27.434Z,102579.56
2023-01-28T04:39:27.964Z,102579.05
2023-01-28T04:42:19.481Z,102579.52
2023-01-28T04:45:07.417Z,102576.89
2023-01-28T04:47:55.644Z,102579.16
2023-01-28T04:50:31.514Z,102585.69
2023-01-28T04:53:21.516Z,102585.11
2023-01-28T04:56:00.349Z,102587.52
2023-01-28T04:58:31.974Z,102581.81
2023-01-28T05:01:04.294Z,102584.50
2023-01-28T05:03:35.953Z,102583.55
2023-01-28T05:06:05.488Z,102579.05
2023-01-28T05:08:46.480Z,102577.53
2023-01-28T05:11:15.538Z,102577.66
2023-01-28T05:13:44.578Z,102577.44
2023-01-28T05:16:15.004Z,102579.83
2023-01-28T05:18:44.831Z,102580.45
2023-01-28T05:21:16.254Z,102574.06
2023-01-28T05:23:45.045Z,102578.34
2023-01-28T05:26:13.619Z,102582.01
2023-01-28T05:28:41.592Z,102592.46
2023-01-28T05:31:11.114Z,102591.02
2023-01-28T05:33:40.402Z,102596.09
2023-01-28T05:36:11.445Z,102600.38
2023-01-28T05:38:40.018Z,102603.53
2023-01-28T05:41:08.012Z,102604.66
2023-01-28T05:43:37.044Z,102611.42
2023-01-28T05:46:27.372Z,102611.42
2023-01-28T05:49:12.614Z,102610.19
2023-01-28T05:52:10.120Z,102607.65
2023-01-28T05:54:38.787Z,102609.95
2023-01-28T05:57:08.088Z,102607.36
2023-01-28T05:59:36.260Z,102604.66
2023-01-28T06:02:04.338Z,102601.98
2023-01-28T06:04:32.397Z,102603.15
2023-01-28T06:07:00.782Z,102608.11
2023-01-28T06:09:29.050Z,102610.55
2023-01-28T06:11:57.437Z,102608.22
2023-01-28T06:14:25.809Z,102612.20
2023-01-28T06:17:29.206Z,102608.22
2023-01-28T06:20:05.126Z,102605.16
2023-01-28T06:22:33.950Z,102604.63
2023-01-28T06:25:01.917Z,102605.42
2023-01-28T06:27:30.199Z,102606.50
2023-01-28T06:29:58.261Z,102608.84
2023-01-28T06:32:26.796Z,102611.64
2023-01-28T06:34:55.022Z,102611.09
2023-01-28T06:37:25.239Z,102611.30
2023-01-28T06:39:54.232Z,102611.19
2023-01-28T06:42:22.433Z,102612.20
2023-01-28T06:44:50.478Z,102615.00
2023-01-28T06:47:18.523Z,102615.50
2023-01-28T06:49:46.930Z,102613.51
2023-01-28T06:52:14.999Z,102613.50
2023-01-28T06:54:43.066Z,102616.38
2023-01-28T06:57:11.145Z,102622.14
2023-01-28T06:59:39.535Z,102616.36
2023-01-28T07:02:09.551Z,102612.59
2023-01-28T07:04:37.602Z,102612.03
2023-01-28T07:07:05.649Z,102610.97
2023-01-28T07:09:33.649Z,102611.48
2023-01-28T07:12:05.511Z,102605.83
2023-01-28T07:14:33.567Z,102612.27
2023-01-28T07:17:01.673Z,102610.63
2023-01-28T07:19:29.722Z,102607.44
2023-01-28T07:22:00.978Z,102607.52
2023-01-28T07:24:30.166Z,102608.33
2023-01-28T07:26:58.329Z,102612.42
2023-01-28T07:29:26.294Z,102619.25
2023-01-28T07:31:54.391Z,102620.52
2023-01-28T07:34:22.432Z,102625.04
2023-01-28T07:36:50.406Z,102627.53
2023-01-28T07:39:18.431Z,102628.38
2023-01-28T07:41:47.568Z,102630.94
2023-01-28T07:44:32.738Z,102636.08
2023-01-28T07:47:00.716Z,102635.20
2023-01-28T07:49:28.877Z,102635.33
2023-01-28T07:51:56.950Z,102634.88
2023-01-28T07:54:25.024Z,102636.09
2023-01-28T07:56:53.088Z,102637.44
2023-01-28T07:59:21.160Z,102634.42
2023-01-28T08:01:49.239Z,102635.98
2023-01-28T08:04:17.480Z,102636.27
2023-01-28T08:06:45.787Z,102637.36
2023-01-28T08:09:14.158Z,102637.05
2023-01-28T08:11:42.609Z,102637.66
2023-01-28T08:14:11.413Z,102637.34
2023-01-28T08:16:39.403Z,102633.77
2023-01-28T08:19:07.344Z,102639.91
2023-01-28T08:21:35.336Z,102636.10
2023-01-28T08:24:03.451Z,102637.73
2023-01-28T08:26:31.574Z,102633.45
2023-01-28T08:28:59.575Z,102631.17
2023-01-28T08:31:29.510Z,102628.80
2023-01-28T08:33:58.165Z,102622.48
2023-01-28T08:36:27.142Z,102622.30
2023-01-28T08:38:55.466Z,102624.72
2023-01-28T08:41:24.409Z,102626.51
2023-01-28T08:43:52.486Z,102623.85
2023-01-28T08:46:20.566Z,102622.11
2023-01-28T08:48:50.573Z,102622.98
2023-01-28T08:51:18.627Z,102619.12
2023-01-28T08:53:46.612Z,102612.56
2023-01-28T08:56:15.094Z,102612.98
2023-01-28T08:58:43.266Z,102620.28
2023-01-28T09:01:11.321Z,102624.10
2023-01-28T09:03:39.419Z,102622.55
2023-01-28T09:06:07.674Z,102625.27
2023-01-28T09:08:35.748Z,102628.94
2023-01-28T09:11:03.806Z,102631.83
2023-01-28T09:13:31.874Z,102635.33
2023-01-28T09:16:00.126Z,102629.68
2023-01-28T09:18:28.353Z,102629.91
2023-01-28T09:20:56.398Z,102628.48
2023-01-28T09:23:24.544Z,102628.31
2023-01-28T09:26:00.249Z,102629.54
2023-01-28T09:28:28.288Z,102628.11
2023-01-28T09:31:08.123Z,102628.10
2023-01-28T09:33:38.361Z,102635.46
2023-01-28T09:36:08.722Z,102635.23
2023-01-28T09:38:36.910Z,102631.26
2023-01-28T09:41:23.669Z,102631.50
2023-01-28T09:44:05.013Z,102633.31
2023-01-28T09:46:35.921Z,102629.06
2023-01-28T09:49:17.777Z,102626.94
2023-01-28T09:51:52.714Z,102628.34
2023-01-28T09:54:43.792Z,102627.91
2023-01-28T09:57:23.969Z,102633.99
2023-01-28T09:59:52.660Z,102635.80
2023-01-28T10:02:29.633Z,102634.33
2023-01-28T10:05:12.314Z,102632.52
2023-01-28T10:08:03.424Z,102628.27
2023-01-28T10:11:20.692Z,102630.49
2023-01-28T10:13:58.887Z,102628.55
2023-01-28T10:16:38.636Z,102623.94
2023-01-28T10:19:23.370Z,102624.96
2023-01-28T10:21:59.042Z,102621.70
2023-01-28T10:24:39.209Z,102612.71
2023-01-28T10:27:27.303Z,102609.30
2023-01-28T10:29:56.017Z,102609.84
2023-01-28T10:32:37.200Z,102609.38
2023-01-28T10:35:05.944Z,102613.16
2023-01-28T10:37:37.356Z,102609.69
2023-01-28T10:40:08.127Z,102601.89
2023-01-28T10:42:39.308Z,102597.88
2023-01-28T10:45:20.872Z,102601.56
2023-01-28T10:48:02.521Z,102598.13
2023-01-28T10:50:31.754Z,102593.02
2023-01-28T10:53:02.417Z,102585.49
2023-01-28T10:55:37.449Z,102584.86
2023-01-28T10:58:05.802Z,102586.50
2023-01-28T11:00:37.200Z,102586.45
2023-01-28T11:03:05.351Z,102584.02
2023-01-28T11:05:33.539Z,102586.46
2023-01-28T11:08:15.517Z,102581.77
2023-01-28T11:10:44.919Z,102580.75
2023-01-28T11:13:24.099Z,102587.86
2023-01-28T11:16:01.131Z,102587.72
2023-01-28T11:18:52.339Z,102591.58
2023-01-28T11:21:24.922Z,102587.80
2023-01-28T11:24:16.479Z,102582.66
2023-01-28T11:26:49.521Z,102580.69
2023-01-28T11:29:33.782Z,102573.44
2023-01-28T11:32:02.570Z,102565.48
2023-01-28T11:34:35.341Z,102567.61
2023-01-28T11:37:13.667Z,102567.32
2023-01-28T11:39:42.113Z,102571.30
2023-01-28T11:42:22.077Z,102573.31
2023-01-28T11:44:50.429Z,102572.03
2023-01-28T11:47:21.511Z,102571.05
2023-01-28T11:50:00.751Z,102568.45
2023-01-28T11:53:07.538Z,102566.41
2023-01-28T11:55:39.481Z,102558.58
2023-01-28T11:58:13.933Z,102554.08
2023-01-28T12:00:47.266Z,102553.17
2023-01-28T12:03:43.292Z,102557.19
2023-01-28T12:06:35.700Z,102555.24
2023-01-28T12:09:35.876Z,102556.39
2023-01-28T12:12:19.206Z,102561.13
2023-01-28T12:14:49.774Z,102557.14
2023-01-28T12:17:52.721Z,102550.69
2023-01-28T12:20:46.189Z,102555.35
2023-01-28T12:23:20.301Z,102553.80
2023-01-28T12:26:00.453Z,102549.08
2023-01-28T12:28:34.363Z,102550.77
2023-01-28T12:31:08.604Z,102541.45
2023-01-28T12:34:01.839Z,102531.63
2023-01-28T12:36:51.333Z,102529.08
2023-01-28T12:39:19.283Z,102515.81
2023-01-28T12:41:57.278Z,102516.88
2023-01-28T12:44:39.787Z,102515.94
2023-01-28T12:47:12.161Z,102518.63
2023-01-28T12:49:51.096Z,102522.84
2023-01-28T12:52:23.967Z,102517.77
2023-01-28T12:55:18.919Z,102517.59
2023-01-28T12:57:48.939Z,102512.53
2023-01-28T13:00:32.779Z,102511.79
2023-01-28T13:03:30.798Z,102506.55
2023-01-28T13:06:48.658Z,102501.30
2023-01-28T13:09:24.701Z,102497.40
2023-01-28T13:11:57.067Z,102490.20
2023-01-28T13:14:32.100Z,102485.02
2023-01-28T13:17:24.744Z,102477.34
2023-01-28T13:19:52.819Z,102478.85
2023-01-28T13:22:39.009Z,102476.98
2023-01-28T13:25:34.846Z,102469.12
2023-01-28T13:28:06.109Z,102471.52
2023-01-28T13:30:47.402Z,102467.67
2023-01-28T13:33:34.691Z,102465.04
2023-01-28T13:36:18.231Z,102464.77
2023-01-28T13:38:46.874Z,102461.70
2023-01-28T13:41:14.970Z,102464.98
2023-01-28T13:43:43.154Z,102464.34
2023-01-28T13:46:26.269Z,102464.04
2023-01-28T13:48:57.718Z,102478.36
2023-01-28T13:51:37.869Z,102477.70
2023-01-28T13:54:17.496Z,102475.70
2023-01-28T13:57:01.161Z,102470.23
2023-01-28T13:59:48.678Z,102466.58
2023-01-28T14:02:41.307Z,102470.39
2023-01-28T14:05:39.395Z,102465.68
2023-01-28T14:08:39.715Z,102464.77
2023-01-28T14:11:13.451Z,102473.38
2023-01-28T14:13:59.941Z,102468.36
2023-01-28T14:16:38.748Z,102464.80
2023-01-28T14:19:13.581Z,102463.58
2023-01-28T14:21:41.852Z,102463.70
2023-01-28T14:24:17.848Z,102461.03
2023-01-28T14:27:08.299Z,102462.63
2023-01-28T14:30:00.946Z,102464.11
2023-01-28T14:32:31.779Z,102462.52
2023-01-28T14:35:05.993Z,102460.77
2023-01-28T14:37:34.272Z,102460.46
2023-01-28T14:40:08.148Z,102459.05
2023-01-28T14:42:40.230Z,102451.56
2023-01-28T14:45:23.674Z,102442.61
2023-01-28T14:47:54.617Z,102441.19
2023-01-28T14:50:32.522Z,102441.35
2023-01-28T14:53:29.355Z,102441.52
2023-01-28T14:56:35.572Z,102438.09
2023-01-28T14:59:22.843Z,102426.35
2023-01-28T15:01:56.083Z,102431.30
2023-01-28T15:04:33.736Z,102433.23
2023-01-28T15:07:16.344Z,102433.98
2023-01-28T15:09:45.493Z,102431.06
2023-01-28T15:12:16.166Z,102428.88
2023-01-28T15:14:47.352Z,102426.01
2023-01-28T15:17:27.773Z,102420.15
2023-01-28T15:19:57.863Z,102421.78
2023-01-28T15:22:28.927Z,102433.18
2023-01-28T15:24:57.208Z,102445.82
2023-01-28T15:27:32.503Z,102449.00
2023-01-28T15:30:00.821Z,102445.63
2023-01-28T15:32:31.478Z,102444.98
2023-01-28T15:35:01.367Z,102446.24
2023-01-28T15:37:29.532Z,102449.65
2023-01-28T15:40:02.727Z,102453.03
2023-01-28T15:42:31.998Z,102445.55
2023-01-28T15:45:00.756Z,102444.54
2023-01-28T15:47:35.574Z,102456.45
2023-01-28T15:50:07.504Z,102448.11
2023-01-28T15:52:41.440Z,102448.95
2023-01-28T15:55:29.780Z,102451.61
2023-01-28T15:58:09.526Z,102457.35
2023-01-28T16:00:37.725Z,102470.40
2023-01-28T16:03:09.893Z,102477.15
2023-01-28T16:05:41.471Z,102481.33
2023-01-28T16:08:15.195Z,102479.87
2023-01-28T16:10:51.992Z,102478.03
2023-01-28T16:13:23.229Z,102470.44
2023-01-28T16:15:54.167Z,102459.96
2023-01-28T16:18:44.168Z,102463.89
2023-01-28T16:21:19.380Z,102471.27
2023-01-28T16:24:00.685Z,102475.61
2023-01-28T16:26:31.139Z,102475.16
2023-01-28T16:29:11.827Z,102476.48
2023-01-28T16:31:39.862Z,102470.23
2023-01-28T16:34:10.559Z,102472.84
2023-01-28T16:36:38.850Z,102469.06
2023-01-28T16:39:06.895Z,102462.59
2023-01-28T16:41:43.992Z,102456.35
2023-01-28T16:44:16.558Z,102454.48
2023-01-28T16:46:44.902Z,102455.91
2023-01-28T16:49:13.018Z,102454.41
2023-01-28T16:51:44.248Z,102454.14
2023-01-28T16:54:15.780Z,102451.48
2023-01-28T16:56:46.502Z,102449.14
2023-01-28T16:59:16.371Z,102445.84
2023-01-28T17:01:44.902Z,102447.05
2023-01-28T17:04:13.500Z,102453.50
2023-01-28T17:06:44.588Z,102458.20
2023-01-28T17:09:14.055Z,102455.51
2023-01-28T17:11:42.395Z,102452.27
2023-01-28T17:14:11.948Z,102451.27
2023-01-28T17:16:40.570Z,102449.58
2023-01-28T17:19:08.805Z,102442.08
2023-01-28T17:21:37.091Z,102434.91
2023-01-28T17:24:06.009Z,102425.54
2023-01-28T17:26:35.581Z,102418.75
2023-01-28T17:29:07.754Z,102421.52
2023-01-28T17:31:36.558Z,102420.95
2023-01-28T17:34:07.160Z,102415.30
2023-01-28T17:36:35.540Z,102419.05
2023-01-28T17:39:07.185Z,102424.66
2023-01-28T17:41:35.261Z,102428.70
2023-01-28T17:44:04.767Z,102422.42
2023-01-28T17:46:32.825Z,102423.22
2023-01-28T17:49:02.442Z,102421.55
2023-01-28T17:51:30.440Z,102420.11
2023-01-28T17:53:58.776Z,102425.00
2023-01-28T17:56:28.900Z,102432.48
2023-01-28T17:58:59.559Z,102436.88
2023-01-28T18:01:27.752Z,102447.63
2023-01-28T18:03:56.345Z,102452.72
2023-01-28T18:06:24.462Z,102446.50
2023-01-28T18:08:52.461Z,102431.98
2023-01-28T18:11:20.804Z,102424.15
2023-01-28T18:13:49.382Z,102429.67
2023-01-28T18:16:19.921Z,102418.29
2023-01-28T18:18:49.778Z,102412.90
2023-01-28T18:21:46.461Z,102405.63
2023-01-28T18:24:18.588Z,102412.16
2023-01-28T18:26:46.811Z,102412.98
2023-01-28T18:29:19.146Z,102414.59
2023-01-28T18:31:48.744Z,102417.02
2023-01-28T18:34:18.189Z,102409.63
2023-01-28T18:36:46.671Z,102419.49
2023-01-28T18:39:15.722Z,102420.64
2023-01-28T18:41:43.934Z,102419.29
2023-01-28T18:44:14.765Z,102414.91
2023-01-28T18:46:43.107Z,102410.75
2023-01-28T18:49:11.216Z,102411.43
2023-01-28T18:51:39.296Z,102408.73
2023-01-28T18:54:11.593Z,102397.29
2023-01-28T18:56:41.474Z,102390.68
2023-01-28T18:59:13.032Z,102400.31
2023-01-28T19:01:42.838Z,102397.94
2023-01-28T19:04:11.216Z,102391.78
2023-01-28T19:06:39.283Z,102392.36
2023-01-28T19:09:10.040Z,102384.30
2023-01-28T19:11:38.679Z,102379.22
2023-01-28T19:14:08.509Z,102380.50
2023-01-28T19:16:37.496Z,102380.58
2023-01-28T19:19:06.164Z,102385.94
2023-01-28T19:21:34.400Z,102385.02
2023-01-28T19:24:07.213Z,102385.54
2023-01-28T19:26:36.342Z,102391.73
2023-01-28T19:29:09.466Z,102400.87
2023-01-28T19:31:39.295Z,102399.33
2023-01-28T19:34:08.851Z,102394.27
2023-01-28T19:36:37.307Z,102393.05
2023-01-28T19:39:08.114Z,102392.83
2023-01-28T19:41:36.903Z,102384.54
2023-01-28T19:44:05.986Z,102392.14
2023-01-28T19:46:36.276Z,102395.94
2023-01-28T19:49:05.944Z,102389.98
2023-01-28T19:51:34.365Z,102383.71
2023-01-28T19:54:02.634Z,102381.68
2023-01-28T19:56:31.004Z,102380.23
2023-01-28T19:58:58.973Z,102378.30
2023-01-28T20:01:30.228Z,102367.64
2023-01-28T20:04:00.618Z,102363.23
2023-01-28T20:06:30.979Z,102358.95
2023-01-28T20:09:01.395Z,102369.86
2023-01-28T20:11:29.820Z,102377.80
2023-01-28T20:13:58.124Z,102379.61
2023-01-28T20:16:31.634Z,102384.85
2023-01-28T20:19:02.692Z,102387.78
2023-01-28T20:21:32.286Z,102384.35
2023-01-28T20:24:02.568Z,102388.11
2023-01-28T20:26:33.653Z,102384.64
2023-01-28T20:29:04.082Z,102386.84
2023-01-28T20:31:33.749Z,102379.52
2023-01-28T20:34:02.291Z,102382.20
2023-01-28T20:36:30.748Z,102389.66
2023-01-28T20:38:59.746Z,102389.59
2023-01-28T20:41:27.820Z,102387.39
2023-01-28T20:43:56.612Z,102393.48
2023-01-28T20:46:30.250Z,102386.53
2023-01-28T20:49:00.146Z,102381.29
2023-01-28T20:51:30.128Z,102377.06
2023-01-28T20:54:00.635Z,102363.48
2023-01-28T20:56:32.743Z,102364.38
2023-01-28T20:59:03.876Z,102365.73
2023-01-28T21:01:34.682Z,102362.52
2023-01-28T21:04:04.717Z,102352.48
2023-01-28T21:06:32.886Z,102342.83
2023-01-28T21:09:01.214Z,102342.90
2023-01-28T21:11:29.540Z,102339.11
2023-01-28T21:13:58.002Z,102337.48
2023-01-28T21:16:26.405Z,102343.85
2023-01-28T21:18:54.790Z,102348.27
2023-01-28T21:21:29.311Z,102348.86
2023-01-28T21:24:00.344Z,102352.55
2023-01-28T21:26:29.037Z,102353.81
2023-01-28T21:28:57.203Z,102356.58
2023-01-28T21:31:26.813Z,102357.04
2023-01-28T21:33:56.924Z,102356.59
2023-01-28T21:36:26.189Z,102356.20
2023-01-28T21:38:56.877Z,102356.98
2023-01-28T21:41:25.410Z,102345.17
2023-01-28T21:43:54.906Z,102341.33
2023-01-28T21:46:26.464Z,102340.73
2023-01-28T21:48:56.527Z,102345.71
2023-01-28T21:51:46.192Z,102342.42
2023-01-28T21:54:19.724Z,102345.30
2023-01-28T21:56:50.070Z,102344.33
2023-01-28T21:59:28.645Z,102343.08
2023-01-28T22:02:09.897Z,102341.11
2023-01-28T22:04:43.299Z,102343.04
2023-01-28T22:07:17.030Z,102347.96
2023-01-28T22:09:47.018Z,102352.58
2023-01-28T22:12:16.016Z,102351.08
2023-01-28T22:14:45.530Z,102345.70
2023-01-28T22:17:14.891Z,102337.14
2023-01-28T22:19:48.085Z,102325.08
2023-01-28T22:22:16.584Z,102325.70
2023-01-28T22:24:44.963Z,102323.02
2023-01-28T22:27:14.278Z,102318.38
2023-01-28T22:29:42.329Z,102317.30
2023-01-28T22:32:10.398Z,102306.77
2023-01-28T22:34:38.879Z,102296.20
2023-01-28T22:37:07.466Z,102291.67
2023-01-28T22:39:35.535Z,102282.85
2023-01-28T22:42:03.608Z,102277.06
2023-01-28T22:44:31.541Z,102279.47
2023-01-28T22:46:59.542Z,102282.82
2023-01-28T22:49:27.528Z,102275.03
2023-01-28T22:51:55.477Z,102265.59
2023-01-28T22:54:23.755Z,102258.22
2023-01-28T22:56:51.826Z,102251.06
2023-01-28T22:59:20.098Z,102239.77
2023-01-28T23:01:48.103Z,102237.04
2023-01-28T23:04:16.135Z,102230.72
2023-01-28T23:06:44.205Z,102233.16
2023-01-28T23:09:12.180Z,102230.63
2023-01-28T23:11:40.253Z,102230.98
2023-01-28T23:14:26.953Z,102227.71
2023-01-28T23:17:13.567Z,102234.11
2023-01-28T23:20:00.983Z,102240.08
2023-01-28T23:22:50.772Z,102239.55
2023-01-28T23:25:20.118Z,102231.79
2023-01-28T23:27:48.134Z,102231.13
2023-01-28T23:30:17.487Z,102224.61
2023-01-28T23:32:50.081Z,102222.54
2023-01-28T23:35:22.011Z,102211.25
2023-01-28T23:37:50.036Z,102205.65
2023-01-28T23:40:19.531Z,102201.67
2023-01-28T23:42:49.711Z,102204.08
2023-01-28T23:45:18.680Z,102204.20
2023-01-28T23:47:47.102Z,102196.75
2023-01-28T23:50:16.004Z,102195.42
2023-01-28T23:52:44.199Z,102185.11
2023-01-28T23:55:12.159Z,102179.84
2023-01-28T23:57:40.129Z,102178.35
